Time;durP1;ratioP1;P1;durP2;ratioP2;P2;SDS_P1;SDS_P2;PMS_P1;PMS_P2;Temp;Humidity;BMP_temperature;BMP_pressure;BME280_temperature;BME280_humidity;BME280_pressure;Samples;Min_cycle;Max_cycle;Signal;HPM_P1;HPM_P2
2023/02/05 00:02:23;;;;;;;1.60;0.85;;;;;;;8.23;100.00;102336.81;7390672;19;20026;-56
2023/02/05 00:04:49;;;;;;;0.50;0.20;;;;;;;8.10;100.00;102349.56;7392238;19;20024;-57
2023/02/05 00:07:15;;;;;;;0.30;0.30;;;;;;;7.98;100.00;102345.19;7392902;19;20011;-57
2023/02/05 00:09:41;;;;;;;0.20;0.20;;;;;;;8.15;100.00;102335.25;7394583;19;20010;-57
2023/02/05 00:12:08;;;;;;;1.23;0.73;;;;;;;8.30;100.00;102317.41;7392257;19;20023;-56
2023/02/05 00:14:34;;;;;;;1.27;0.90;;;;;;;8.19;100.00;102324.94;7389826;19;20090;-58
2023/02/05 00:17:00;;;;;;;0.40;0.40;;;;;;;8.40;100.00;102336.06;7389922;19;20365;-58
2023/02/05 00:19:26;;;;;;;0.10;0.10;;;;;;;8.19;100.00;102328.50;7392722;19;20011;-58
2023/02/05 00:21:52;;;;;;;0.13;0.13;;;;;;;8.12;100.00;102325.75;7391216;19;20014;-57
2023/02/05 00:24:19;;;;;;;0.65;0.65;;;;;;;8.29;100.00;102324.19;7392054;19;20106;-57
2023/02/05 00:26:45;;;;;;;0.20;0.20;;;;;;;7.82;100.00;102342.00;7394480;19;20113;-57
2023/02/05 00:29:11;;;;;;;0.10;0.10;;;;;;;7.60;100.00;102354.31;7391905;19;20015;-57
2023/02/05 00:31:39;;;;;;;22.27;2.58;;;;;;;8.94;100.00;102363.22;7391558;19;20022;-58
2023/02/05 00:34:05;;;;;;;4.03;0.98;;;;;;;21.14;74.75;102322.28;7390928;19;20039;-58
2023/02/05 00:36:31;;;;;;;0.15;0.15;;;;;;;23.24;56.69;102338.41;7392519;19;20463;-58
2023/02/05 00:38:57;;;;;;;9.02;1.00;;;;;;;24.63;49.05;102342.88;7393783;19;20014;-57
2023/02/05 00:41:24;;;;;;;4.13;1.48;;;;;;;25.62;45.96;102342.22;7390692;19;20018;-58
2023/02/05 00:43:50;;;;;;;9.30;0.70;;;;;;;10.28;100.00;102367.94;7389602;19;20014;-58
2023/02/05 00:46:17;;;;;;;0.15;0.15;;;;;;;7.39;100.00;102349.50;7389269;19;20027;-58
2023/02/05 00:48:43;;;;;;;0.17;0.17;;;;;;;10.17;100.00;102331.03;7391257;19;20019;-58
2023/02/05 00:51:10;;;;;;;0.10;0.10;;;;;;;8.41;100.00;102337.63;7390776;19;20078;-58
2023/02/05 00:53:37;;;;;;;0.10;0.10;;;;;;;8.65;100.00;102353.44;7391051;19;20018;-58
2023/02/05 00:56:03;;;;;;;0.65;0.30;;;;;;;4.95;100.00;102345.38;7389639;19;20014;-58
2023/02/05 00:58:29;;;;;;;0.70;0.70;;;;;;;6.32;100.00;102340.34;7390651;19;20014;-58
2023/02/05 01:00:56;;;;;;;0.85;0.30;;;;;;;5.77;100.00;102318.19;7393523;19;20015;-58
2023/02/05 01:03:22;;;;;;;2.63;0.75;;;;;;;5.00;100.00;102326.50;7390337;19;20007;-58
2023/02/05 01:05:49;;;;;;;0.10;0.10;;;;;;;5.64;100.00;102330.72;7390187;19;20353;-58
2023/02/05 01:08:15;;;;;;;0.65;0.38;;;;;;;4.30;100.00;102334.69;7389301;19;20014;-58
2023/02/05 01:10:46;;;;;;;4.63;0.75;;;;;;;4.52;100.00;102344.88;7390211;19;20014;-58
2023/02/05 01:13:14;;;;;;;0.82;0.45;;;;;;;8.95;100.00;102323.13;7390041;19;20018;-58
2023/02/05 01:15:40;;;;;;;0.80;0.73;;;;;;;7.63;100.00;102307.16;7391456;19;20130;-58
2023/02/05 01:18:07;;;;;;;0.68;0.68;;;;;;;6.93;100.00;102309.78;7392266;19;20435;-58
2023/02/05 01:20:39;;;;;;;0.20;0.20;;;;;;;10.12;100.00;102314.75;7396398;19;20037;-58
2023/02/05 01:23:05;;;;;;;0.38;0.38;;;;;;;7.39;100.00;102327.31;7394065;19;20014;-58
2023/02/05 01:25:31;;;;;;;0.10;0.10;;;;;;;6.65;100.00;102342.91;7395857;19;20011;-58
2023/02/05 01:27:57;;;;;;;0.10;0.10;;;;;;;6.41;100.00;102338.03;7392568;19;20042;-58
2023/02/05 01:30:24;;;;;;;0.20;0.20;;;;;;;6.42;100.00;102339.63;7392350;19;20016;-58
2023/02/05 01:32:50;;;;;;;8.73;0.47;;;;;;;6.32;100.00;102343.13;7393148;19;20026;-58
2023/02/05 01:35:16;;;;;;;0.17;0.17;;;;;;;6.06;100.00;102350.44;7391875;19;20015;-57
2023/02/05 01:37:42;;;;;;;4.22;1.38;;;;;;;6.01;100.00;102364.66;7391457;19;20015;-58
2023/02/05 01:40:14;;;;;;;0.22;0.22;;;;;;;6.10;100.00;102373.41;7396831;19;20024;-58
2023/02/05 01:42:40;;;;;;;0.30;0.30;;;;;;;15.78;100.00;102360.00;7392512;19;20019;-57
2023/02/05 01:45:22;;;;;;;0.30;0.30;;;;;;;12.71;88.11;102383.94;7390712;19;20029;-58
2023/02/05 01:47:51;;;;;;;0.10;0.10;;;;;;;20.15;68.16;102380.53;7391531;19;20006;-58
2023/02/05 01:50:27;;;;;;;1.88;0.50;;;;;;;18.48;69.15;102386.00;7392110;19;20024;-58
2023/02/05 01:52:55;;;;;;;1.40;0.50;;;;;;;21.82;60.99;102376.75;7390546;19;20011;-58
2023/02/05 01:55:22;;;;;;;0.38;0.25;;;;;;;24.30;49.38;102399.75;7388235;19;20019;-58
2023/02/05 01:57:50;;;;;;;0.40;0.32;;;;;;;23.92;47.09;102412.44;7389918;19;20472;-58
2023/02/05 02:00:16;;;;;;;0.10;0.10;;;;;;;10.79;90.60;102438.63;7391400;19;20367;-58
2023/02/05 02:02:43;;;;;;;0.20;0.20;;;;;;;12.92;100.00;102438.69;7388624;19;20031;-58
2023/02/05 02:05:12;;;;;;;0.50;0.30;;;;;;;10.41;100.00;102447.00;7389805;19;20021;-57
2023/02/05 02:07:39;;;;;;;0.50;0.50;;;;;;;9.58;100.00;102458.28;7387652;19;20035;-58
2023/02/05 02:10:09;;;;;;;0.40;0.40;;;;;;;7.55;100.00;102474.72;7396588;19;20078;-58
2023/02/05 02:12:38;;;;;;;0.10;0.10;;;;;;;6.36;100.00;102479.53;7400897;19;20712;-58
2023/02/05 02:15:09;;;;;;;4.65;1.85;;;;;;;19.55;76.80;102474.78;7396836;19;20109;-57
2023/02/05 02:17:39;;;;;;;0.55;0.55;;;;;;;20.89;59.51;102492.81;7396781;19;20018;-58
2023/02/05 02:20:29;;;;;;;0.25;0.25;;;;;;;17.91;57.23;102498.31;7397908;19;20011;-58
2023/02/05 02:23:14;;;;;;;0.30;0.30;;;;;;;18.08;66.90;102496.81;7396640;19;20070;-58
2023/02/05 02:25:43;;;;;;;0.10;0.10;;;;;;;23.85;51.38;102490.53;7396545;19;20018;-58
2023/02/05 02:28:28;;;;;;;0.68;0.68;;;;;;;24.88;46.13;102490.19;7394180;19;20036;-58
2023/02/05 02:31:05;;;;;;;0.30;0.10;;;;;;;23.12;53.25;102490.31;7397527;19;20018;-58
2023/02/05 02:33:55;;;;;;;2.22;0.57;;;;;;;8.84;100.00;102528.00;7394900;19;20017;-58
2023/02/05 02:36:27;;;;;;;9.95;1.00;;;;;;;16.16;85.75;102514.56;7393922;19;20411;-57
2023/02/05 02:39:01;;;;;;;0.45;0.45;;;;;;;9.40;100.00;102520.75;7397072;19;20007;-57
2023/02/05 02:41:39;;;;;;;0.10;0.10;;;;;;;10.85;100.00;102526.22;7398502;19;20039;-58
2023/02/05 02:44:27;;;;;;;0.40;0.30;;;;;;;8.34;100.00;102549.44;7393270;19;20031;-58
2023/02/05 02:46:57;;;;;;;1.95;0.70;;;;;;;16.92;63.26;102532.16;7394534;19;20015;-57
2023/02/05 02:49:30;;;;;;;0.55;0.47;;;;;;;7.00;100.00;102556.38;7395714;19;20480;-58
2023/02/05 02:52:03;;;;;;;1.67;1.58;;;;;;;4.74;100.00;102549.38;7393341;19;20456;-57
2023/02/05 02:54:32;;;;;;;0.10;0.10;;;;;;;22.45;55.10;102500.78;7395861;19;20025;-58
2023/02/05 02:57:02;;;;;;;2.40;1.15;;;;;;;24.24;46.09;102510.78;7395203;19;20022;-57
2023/02/05 02:59:32;;;;;;;2.10;0.90;;;;;;;23.89;44.97;102524.44;7395331;19;20026;-58
2023/02/05 03:02:03;;;;;;;0.88;0.52;;;;;;;23.23;44.57;102535.94;7393480;19;20435;-58
2023/02/05 03:04:35;;;;;;;4.47;0.43;;;;;;;24.05;42.92;102544.56;7393759;19;20011;-58
2023/02/05 03:07:09;;;;;;;9.95;0.90;;;;;;;23.47;41.24;102556.41;7394804;19;20010;-58
2023/02/05 03:09:48;;;;;;;1.73;0.43;;;;;;;24.67;40.36;102554.31;7395188;19;20021;-58
2023/02/05 03:12:19;;;;;;;1.95;0.30;;;;;;;25.02;39.45;102557.63;7394736;19;20022;-58
2023/02/05 03:14:45;;;;;;;0.52;0.52;;;;;;;23.96;39.42;102549.63;7393018;19;20026;-58
2023/02/05 03:17:17;;;;;;;15.50;1.08;;;;;;;25.23;37.83;102553.31;7393792;19;20018;-58
2023/02/05 03:19:52;;;;;;;0.90;0.45;;;;;;;22.18;39.83;102554.28;7395938;19;20010;-58
2023/02/05 03:22:18;;;;;;;1.27;0.57;;;;;;;23.97;38.74;102548.34;7393358;19;20014;-58
2023/02/05 03:24:44;;;;;;;0.13;0.13;;;;;;;24.60;37.39;102554.81;7392683;19;20002;-58
2023/02/05 03:27:11;;;;;;;11.73;0.75;;;;;;;23.10;39.02;102555.41;7394498;19;20014;-58
2023/02/05 03:29:43;;;;;;;0.22;0.22;;;;;;;17.41;46.35;102566.25;7393082;19;20006;-58
2023/02/05 03:32:22;;;;;;;0.30;0.30;;;;;;;19.06;43.94;102564.53;7393168;19;20019;-58
2023/02/05 03:35:08;;;;;;;8.68;0.73;;;;;;;21.76;42.45;102563.13;7393346;19;20017;-58
2023/02/05 03:37:38;;;;;;;0.28;0.28;;;;;;;22.28;40.74;102564.28;7393065;19;20025;-58
2023/02/05 03:40:23;;;;;;;0.10;0.10;;;;;;;24.14;37.73;102574.94;7397141;19;20463;-57
2023/02/05 03:43:15;;;;;;;2.55;0.30;;;;;;;22.43;39.25;102590.59;7392802;19;20014;-58
2023/02/05 03:46:16;;;;;;;3.60;0.93;;;;;;;24.09;37.07;102590.69;7392754;19;20518;-58
2023/02/05 03:48:59;;;;;;;1.00;0.40;;;;;;;23.85;36.74;102598.69;7392289;19;20048;-58
2023/02/05 03:51:43;;;;;;;0.40;0.40;;;;;;;24.36;35.83;102608.50;7392234;19;20014;-58
2023/02/05 03:54:37;;;;;;;0.45;0.45;;;;;;;20.80;39.10;102595.66;7392172;19;20014;-58
2023/02/05 03:57:17;;;;;;;1.10;0.55;;;;;;;22.60;37.69;102588.84;7391051;19;20463;-58
2023/02/05 03:59:47;;;;;;;0.20;0.17;;;;;;;22.66;38.42;102588.91;7392800;19;20531;-58
2023/02/05 04:02:16;;;;;;;0.43;0.43;;;;;;;24.55;35.36;102581.19;7391162;19;20085;-58
2023/02/05 04:04:44;;;;;;;0.32;0.20;;;;;;;25.37;34.15;102566.59;7391916;19;20052;-58
2023/02/05 04:07:10;;;;;;;0.20;0.20;;;;;;;25.49;34.02;102570.28;7391236;19;20359;-58
2023/02/05 04:09:38;;;;;;;0.10;0.10;;;;;;;22.21;36.51;102568.31;7392692;19;20030;-58
2023/02/05 04:12:04;;;;;;;0.80;0.80;;;;;;;23.80;35.24;102584.44;7392042;19;20018;-58
2023/02/05 04:14:31;;;;;;;0.40;0.30;;;;;;;24.41;34.34;102591.44;7390884;19;20010;-58
2023/02/05 04:16:57;;;;;;;0.63;0.63;;;;;;;24.68;33.85;102581.53;7393253;19;20471;-58
2023/02/05 04:19:25;;;;;;;1.05;1.00;;;;;;;24.82;33.85;102594.84;7391433;19;20006;-58
2023/02/05 04:21:53;;;;;;;0.10;0.10;;;;;;;24.69;33.93;102597.34;7390891;19;20023;-58
2023/02/05 04:24:20;;;;;;;0.10;0.10;;;;;;;25.41;32.77;102601.38;7391568;19;20570;-58
2023/02/05 04:26:47;;;;;;;0.50;0.50;;;;;;;25.38;32.76;102604.47;7397205;19;20455;-58
2023/02/05 04:29:13;;;;;;;0.35;0.35;;;;;;;25.47;32.23;102613.59;7390840;19;20010;-58
2023/02/05 04:31:44;;;;;;;0.30;0.30;;;;;;;25.47;32.02;102613.59;7389872;19;20027;-58
2023/02/05 04:34:11;;;;;;;0.85;0.85;;;;;;;25.58;31.85;102622.19;7391045;19;20062;-58
2023/02/05 04:36:38;;;;;;;0.55;0.55;;;;;;;25.49;31.76;102625.28;7391620;19;20329;-58
2023/02/05 04:39:04;;;;;;;1.25;0.75;;;;;;;25.67;31.58;102629.75;7392568;19;20116;-58
2023/02/05 04:41:30;;;;;;;5.55;0.85;;;;;;;25.41;31.68;102631.97;7390879;19;20014;-58
2023/02/05 04:43:56;;;;;;;0.68;0.68;;;;;;;25.52;31.42;102629.19;7391772;19;20014;-58
2023/02/05 04:46:23;;;;;;;0.15;0.15;;;;;;;24.95;32.07;102635.09;7391777;19;20006;-58
2023/02/05 04:48:49;;;;;;;16.17;1.17;;;;;;;25.55;31.87;102651.75;7390431;19;20017;-58
2023/02/05 04:51:16;;;;;;;0.52;0.47;;;;;;;24.88;32.50;102649.84;7391719;19;20014;-58
2023/02/05 04:53:42;;;;;;;0.93;0.63;;;;;;;23.21;33.43;102657.91;7390511;19;20021;-58
2023/02/05 04:56:14;;;;;;;1.45;0.50;;;;;;;24.65;32.23;102668.03;7389777;19;20015;-58
2023/02/05 04:58:40;;;;;;;0.10;0.10;;;;;;;13.87;42.16;102699.19;7392250;19;20011;-58
2023/02/05 05:01:17;;;;;;;0.52;0.40;;;;;;;7.26;87.49;102711.34;7394152;19;20021;-58
2023/02/05 05:03:44;;;;;;;3.40;0.70;;;;;;;5.73;100.00;102718.25;7391123;19;20014;-58
2023/02/05 05:06:10;;;;;;;0.10;0.10;;;;;;;5.06;100.00;102722.72;7391493;19;20011;-58
2023/02/05 05:08:37;;;;;;;0.30;0.30;;;;;;;4.68;100.00;102724.75;7391547;19;20019;-58
2023/02/05 05:11:11;;;;;;;1.17;0.73;;;;;;;4.39;100.00;102715.91;7393249;19;20010;-58
2023/02/05 05:13:38;;;;;;;0.20;0.20;;;;;;;5.27;100.00;102702.91;7389692;19;20016;-58
2023/02/05 05:16:05;;;;;;;0.45;0.45;;;;;;;4.37;100.00;102712.72;7390254;19;20015;-58
2023/02/05 05:18:33;;;;;;;0.20;0.20;;;;;;;4.00;100.00;102719.81;7391406;19;20459;-58
2023/02/05 05:21:00;;;;;;;0.30;0.30;;;;;;;3.93;100.00;102711.38;7398921;19;20006;-58
2023/02/05 05:23:26;;;;;;;0.40;0.30;;;;;;;3.89;100.00;102707.75;7393641;19;20010;-66
2023/02/05 05:25:53;;;;;;;0.28;0.28;;;;;;;3.95;100.00;102706.31;7396576;19;20022;-58
2023/02/05 05:28:19;;;;;;;12.23;0.82;;;;;;;3.89;100.00;102723.50;7392511;19;20014;-57
2023/02/05 05:30:46;;;;;;;0.15;0.15;;;;;;;3.99;100.00;102729.25;7395252;19;20011;-65
2023/02/05 05:33:12;;;;;;;0.45;0.35;;;;;;;3.77;100.00;102721.66;7396242;19;20010;-58
2023/02/05 05:35:38;;;;;;;2.88;1.10;;;;;;;13.61;100.00;102698.88;7394510;19;20018;-89
2023/02/05 05:38:05;;;;;;;6.07;0.95;;;;;;;19.23;50.40;102690.13;7389514;19;20014;-88
2023/02/05 05:46:05;;;;;;;3.03;0.88;;;;;;;23.28;39.67;102691.63;7387502;19;20034;-89
2023/02/05 05:48:31;;;;;;;0.22;0.22;;;;;;;23.63;38.54;102694.44;7387849;19;20050;-89
2023/02/05 05:50:57;;;;;;;0.73;0.73;;;;;;;23.78;37.62;102707.28;7396117;19;20078;-89
2023/02/05 05:53:23;;;;;;;0.10;0.10;;;;;;;23.77;37.00;102722.81;7392023;19;20011;-89
2023/02/05 05:55:49;;;;;;;0.75;0.60;;;;;;;8.56;74.99;102739.13;7391431;19;20010;-89
2023/02/05 05:58:16;;;;;;;1.55;0.57;;;;;;;7.68;100.00;102746.16;7391869;19;20006;-89
2023/02/05 06:00:42;;;;;;;0.50;0.50;;;;;;;5.88;100.00;102756.03;7394911;19;20457;-89
2023/02/05 06:03:12;;;;;;;0.30;0.30;;;;;;;7.80;100.00;102754.13;7393210;19;20038;-90
2023/02/05 06:05:38;;;;;;;5.15;0.40;;;;;;;6.90;100.00;102753.78;7392106;19;20015;-89
2023/02/05 06:08:04;;;;;;;0.30;0.20;;;;;;;19.71;54.06;102721.69;7391102;19;20857;-89
2023/02/05 06:10:35;;;;;;;0.30;0.30;;;;;;;22.13;43.48;102728.16;7395280;19;20035;-89
2023/02/05 06:13:01;;;;;;;0.77;0.77;;;;;;;22.84;40.54;102727.91;7392413;19;20019;-90
2023/02/05 06:15:27;;;;;;;2.45;0.63;;;;;;;23.16;38.89;102735.38;7390547;19;20026;-90
2023/02/05 06:17:53;;;;;;;0.70;0.63;;;;;;;23.45;37.99;102743.88;7391347;19;20018;-89
2023/02/05 06:20:19;;;;;;;0.30;0.20;;;;;;;23.94;36.83;102749.41;7393687;19;20341;-89
2023/02/05 06:22:45;;;;;;;0.70;0.45;;;;;;;23.65;36.41;102752.41;7393215;19;20014;-90
2023/02/05 06:25:12;;;;;;;0.40;0.40;;;;;;;23.47;35.97;102766.91;7391866;19;20025;-89
2023/02/05 06:27:38;;;;;;;0.95;0.80;;;;;;;23.45;36.06;102763.78;7391725;19;20010;-89
2023/02/05 06:30:05;;;;;;;0.20;0.20;;;;;;;23.44;35.43;102767.09;7393501;19;20014;-89
2023/02/05 06:32:31;;;;;;;1.33;0.85;;;;;;;23.29;35.05;102773.59;7390874;19;20026;-89
2023/02/05 06:34:57;;;;;;;0.32;0.30;;;;;;;12.67;48.04;102813.00;7392214;19;20089;-89
2023/02/05 06:37:28;;;;;;;0.98;0.98;;;;;;;9.24;80.50;102810.38;7391860;19;20010;-90
2023/02/05 06:39:54;;;;;;;2.08;1.00;;;;;;;12.22;67.52;102814.31;7387583;19;20034;-90
2023/02/05 06:42:21;;;;;;;0.73;0.73;;;;;;;5.31;100.00;102828.09;7384894;19;20014;-89
2023/02/05 06:44:47;;;;;;;3.90;0.50;;;;;;;5.09;100.00;102823.38;7391790;19;20015;-89
2023/02/05 06:47:13;;;;;;;0.40;0.40;;;;;;;12.51;87.00;102799.63;7391871;19;20031;-89
2023/02/05 06:49:39;;;;;;;0.15;0.15;;;;;;;20.16;46.33;102787.53;7393071;19;20017;-89
2023/02/05 06:52:06;;;;;;;19.95;1.17;;;;;;;20.86;42.58;102792.03;7389093;19;20014;-89
2023/02/05 06:54:32;;;;;;;0.50;0.50;;;;;;;20.85;41.37;102807.47;7396542;19;20021;-89
2023/02/05 06:56:58;;;;;;;18.63;0.95;;;;;;;21.14;40.44;102801.25;7401618;19;20464;-89
2023/02/05 06:59:24;;;;;;;0.52;0.52;;;;;;;20.79;39.62;102809.34;7401228;19;20043;-89
2023/02/05 07:01:51;;;;;;;0.17;0.15;;;;;;;20.59;39.80;102814.75;7395848;19;20010;-88
2023/02/05 07:04:17;;;;;;;2.28;0.57;;;;;;;21.68;37.57;102811.53;7397454;19;20011;-89
2023/02/05 07:06:43;;;;;;;1.42;0.65;;;;;;;21.81;37.21;102797.91;7399956;19;20018;-89
2023/02/05 07:09:10;;;;;;;0.20;0.20;;;;;;;21.44;37.74;102810.75;7401528;19;20006;-89
2023/02/05 07:11:36;;;;;;;5.60;1.25;;;;;;;21.66;36.60;102825.44;7396297;19;20480;-89
2023/02/05 07:14:02;;;;;;;0.30;0.22;;;;;;;10.38;57.15;102848.94;7398895;19;20020;-89
2023/02/05 07:16:29;;;;;;;2.15;0.32;;;;;;;8.73;86.97;102846.72;7400477;19;20018;-89
2023/02/05 07:18:57;;;;;;;2.17;2.03;;;;;;;12.13;64.03;102835.16;7401386;19;20047;-89
2023/02/05 07:21:23;;;;;;;3.75;0.50;;;;;;;14.09;57.45;102834.88;7397442;19;20027;-89
2023/02/05 07:23:49;;;;;;;0.50;0.50;;;;;;;4.65;100.00;102871.75;7399153;19;20010;-91
2023/02/05 07:26:16;;;;;;;4.95;0.40;;;;;;;13.34;65.03;102862.50;7399915;19;20018;-89
2023/02/05 07:28:44;;;;;;;3.10;0.55;;;;;;;13.85;59.01;102848.09;7398189;19;20359;-89
2023/02/05 07:31:17;;;;;;;0.30;0.30;;;;;;;5.82;84.02;102859.81;7396910;19;20014;-87
2023/02/05 07:33:44;;;;;;;0.13;0.13;;;;;;;18.69;51.94;102828.31;7397568;19;20470;-92
2023/02/05 07:36:15;;;;;;;0.30;0.30;;;;;;;21.63;41.53;102832.06;7395812;19;20010;-92
2023/02/05 07:38:42;;;;;;;0.90;0.90;;;;;;;22.84;37.42;102841.59;7397741;19;20011;-91
2023/02/05 07:41:10;;;;;;;0.10;0.10;;;;;;;23.53;35.25;102841.75;7399390;19;20030;-91
2023/02/05 07:43:38;;;;;;;1.33;0.30;;;;;;;23.49;34.89;102840.38;7396980;19;20018;-91
2023/02/05 07:46:08;;;;;;;0.32;0.32;;;;;;;24.36;33.63;102842.13;7397171;19;20025;-91
2023/02/05 07:48:34;;;;;;;19.77;1.02;;;;;;;24.49;32.53;102862.47;7399117;19;20011;-91
2023/02/05 07:51:01;;;;;;;0.10;0.10;;;;;;;24.37;32.52;102872.94;7400986;19;20015;-92
2023/02/05 07:53:27;;;;;;;0.13;0.13;;;;;;;24.58;31.86;102863.06;7396908;19;20493;-91
2023/02/05 07:55:53;;;;;;;0.52;0.52;;;;;;;24.43;31.30;102873.03;7392934;19;20014;-91
2023/02/05 07:58:20;;;;;;;5.97;1.02;;;;;;;14.31;39.71;102892.19;7396150;19;20016;-91
2023/02/05 08:00:46;;;;;;;0.20;0.20;;;;;;;7.01;85.32;102918.16;7397093;19;20497;-92
2023/02/05 08:03:13;;;;;;;3.00;0.95;;;;;;;6.47;92.26;102917.78;7396342;19;20034;-92
2023/02/05 08:05:39;;;;;;;2.78;0.95;;;;;;;20.42;43.50;102893.56;7396401;19;20039;-92
2023/02/05 08:08:06;;;;;;;0.52;0.52;;;;;;;22.44;36.93;102879.00;7397721;19;20018;-92
2023/02/05 08:10:32;;;;;;;1.00;0.35;;;;;;;23.18;34.92;102869.31;7400466;19;20015;-91
2023/02/05 08:12:58;;;;;;;0.30;0.30;;;;;;;23.59;33.79;102865.38;7394707;19;20015;-91
2023/02/05 08:15:26;;;;;;;0.75;0.75;;;;;;;23.55;33.30;102870.47;7398204;19;20477;-91
2023/02/05 08:17:53;;;;;;;0.40;0.40;;;;;;;8.88;51.49;102912.31;7395677;19;20038;-92
2023/02/05 08:20:19;;;;;;;1.10;0.38;;;;;;;2.53;100.00;102921.28;7395366;19;20014;-92
2023/02/05 08:22:45;;;;;;;20.58;0.85;;;;;;;0.98;100.00;102920.63;7397832;19;20355;-92
2023/02/05 08:25:13;;;;;;;0.47;0.47;;;;;;;1.10;100.00;102907.00;7397213;19;20021;-92
2023/02/05 08:27:41;;;;;;;1.13;0.95;;;;;;;4.59;100.00;102910.66;7395734;19;20493;-92
2023/02/05 08:30:10;;;;;;;0.57;0.57;;;;;;;1.25;100.00;102931.88;7396960;19;20482;-91
2023/02/05 08:32:37;;;;;;;0.52;0.40;;;;;;;13.56;99.01;102914.97;7394536;19;20492;-91
2023/02/05 08:35:03;;;;;;;0.43;0.43;;;;;;;13.57;59.00;102910.97;7394447;19;20014;-91
2023/02/05 08:37:30;;;;;;;0.73;0.55;;;;;;;16.64;62.06;102901.75;7392843;19;20045;-91
2023/02/05 08:39:56;;;;;;;6.18;0.77;;;;;;;3.85;100.00;102928.19;7396612;19;20018;-91
2023/02/05 08:42:23;;;;;;;1.20;1.10;;;;;;;1.78;100.00;102932.94;7396422;19;20033;-92
2023/02/05 08:44:50;;;;;;;1.77;1.05;;;;;;;1.94;100.00;102936.63;7396819;19;20015;-92
2023/02/05 08:47:20;;;;;;;2.05;0.45;;;;;;;4.32;100.00;102936.47;7397047;19;20365;-92
2023/02/05 08:49:47;;;;;;;0.85;0.60;;;;;;;7.44;100.00;102933.31;7396984;19;20021;-92
2023/02/05 08:52:13;;;;;;;13.90;1.65;;;;;;;3.98;100.00;102931.69;7394862;19;20035;-92
2023/02/05 08:54:40;;;;;;;0.85;0.85;;;;;;;0.57;100.00;102922.25;7395612;19;20338;-92
2023/02/05 08:57:07;;;;;;;9.80;1.15;;;;;;;18.68;60.62;102878.34;7394461;19;20006;-92
2023/02/05 08:59:34;;;;;;;1.05;1.05;;;;;;;17.30;52.72;102881.34;7396081;19;20011;-93
2023/02/05 09:02:01;;;;;;;0.45;0.45;;;;;;;20.71;45.30;102876.09;7396609;19;20079;-92
2023/02/05 09:04:27;;;;;;;0.70;0.70;;;;;;;24.05;37.83;102874.88;7397653;19;20809;-92
2023/02/05 09:06:53;;;;;;;4.68;1.42;;;;;;;6.76;86.92;102897.63;7399531;19;20014;-92
2023/02/05 09:09:19;;;;;;;0.40;0.38;;;;;;;5.81;100.00;102896.94;7398562;19;20082;-92
2023/02/05 09:11:46;;;;;;;1.50;0.73;;;;;;;1.65;100.00;102906.56;7393090;19;20018;-91
2023/02/05 09:14:13;;;;;;;2.72;2.35;;;;;;;0.46;100.00;102912.00;7396986;19;20109;-93
2023/02/05 09:16:40;;;;;;;1.27;0.63;;;;;;;0.57;100.00;102921.44;7394794;19;20399;-93
2023/02/05 09:19:07;;;;;;;0.95;0.65;;;;;;;0.53;100.00;102906.78;7397252;19;20033;-90
2023/02/05 09:21:33;;;;;;;2.15;1.88;;;;;;;5.86;100.00;102898.63;7394786;19;20014;-92
2023/02/05 09:23:59;;;;;;;8.88;2.40;;;;;;;1.65;100.00;102890.09;7396912;19;20007;-92
2023/02/05 09:26:26;;;;;;;19.25;3.65;;;;;;;0.52;100.00;102880.53;7397041;19;20014;-93
2023/02/05 09:28:52;;;;;;;7.28;3.97;;;;;;;2.00;100.00;102870.09;7395252;19;20475;-92
2023/02/05 09:31:19;;;;;;;23.23;2.78;;;;;;;8.10;100.00;102868.56;7393935;19;20031;-92
2023/02/05 09:33:45;;;;;;;2.63;1.33;;;;;;;3.08;100.00;102888.31;7395945;19;20051;-93
2023/02/05 09:36:14;;;;;;;4.47;2.42;;;;;;;0.99;100.00;102890.16;7391911;19;20010;-92
2023/02/05 09:38:41;;;;;;;9.02;2.95;;;;;;;17.27;89.32;102865.31;7396045;19;20014;-92
2023/02/05 09:41:20;;;;;;;7.15;3.90;;;;;;;6.65;100.00;102874.53;7398567;19;20346;-92
2023/02/05 09:44:07;;;;;;;2.35;1.42;;;;;;;2.40;100.00;102872.94;7396101;19;20047;-91
2023/02/05 09:47:04;;;;;;;5.65;1.75;;;;;;;2.48;100.00;102858.25;7396274;19;20015;-92
2023/02/05 09:49:40;;;;;;;6.70;1.30;;;;;;;3.76;100.00;102852.34;7397747;19;20386;-91
2023/02/05 09:52:18;;;;;;;12.70;1.42;;;;;;;1.83;100.00;102847.53;7394065;19;20034;-91
2023/02/05 09:54:51;;;;;;;6.85;1.77;;;;;;;2.06;100.00;102840.44;7395214;19;20028;-91
2023/02/05 09:57:41;;;;;;;0.32;0.32;;;;;;;1.35;100.00;102854.59;7394775;19;20441;-91
2023/02/05 10:00:27;;;;;;;0.70;0.70;;;;;;;1.16;100.00;102873.50;7398025;19;20469;-90
2023/02/05 10:03:30;;;;;;;2.30;0.90;;;;;;;1.33;100.00;102884.31;7396482;19;20018;-92
2023/02/05 10:06:11;;;;;;;3.40;0.50;;;;;;;1.28;100.00;102881.78;7392218;19;20010;-91
2023/02/05 10:08:46;;;;;;;2.30;0.82;;;;;;;1.62;100.00;102891.59;7396781;19;20006;-92
2023/02/05 10:11:41;;;;;;;0.60;0.60;;;;;;;0.96;100.00;102903.72;7393559;19;20018;-91
2023/02/05 10:14:41;;;;;;;2.90;1.13;;;;;;;1.39;100.00;102893.94;7391647;19;20019;-90
2023/02/05 10:17:35;;;;;;;2.78;2.10;;;;;;;1.27;100.00;102874.69;7391680;19;20049;-90
2023/02/05 10:20:04;;;;;;;2.45;0.95;;;;;;;1.12;100.00;102861.63;7395432;19;20122;-90
2023/02/05 10:22:44;;;;;;;3.85;0.93;;;;;;;3.79;100.00;102868.16;7393724;19;20496;-90
2023/02/05 10:25:22;;;;;;;0.30;0.20;;;;;;;3.77;100.00;102870.47;7395679;19;20006;-89
2023/02/05 10:28:00;;;;;;;2.28;0.43;;;;;;;1.91;100.00;102865.84;7393877;19;20049;-90
2023/02/05 10:30:35;;;;;;;6.20;2.05;;;;;;;2.91;100.00;102869.34;7401287;19;20011;-91
2023/02/05 10:33:15;;;;;;;1.27;0.75;;;;;;;2.26;100.00;102873.31;7390884;19;20031;-90
2023/02/05 10:36:03;;;;;;;3.70;0.93;;;;;;;10.42;100.00;102866.44;7390301;19;20006;-90
2023/02/05 10:38:34;;;;;;;2.20;1.13;;;;;;;23.93;54.04;102846.72;7397978;19;20018;-90
2023/02/05 10:41:11;;;;;;;1.40;0.88;;;;;;;18.16;74.95;102862.00;7403348;19;20019;-90
2023/02/05 10:44:03;;;;;;;6.35;0.95;;;;;;;26.02;44.81;102852.09;7401375;19;20007;-89
2023/02/05 10:46:33;;;;;;;4.65;0.95;;;;;;;24.51;42.02;102848.50;7400293;19;20026;-89
2023/02/05 10:49:19;;;;;;;3.67;1.10;;;;;;;6.71;100.00;102875.81;7401549;19;20018;-89
2023/02/05 10:51:45;;;;;;;3.38;1.58;;;;;;;4.49;100.00;102885.59;7397999;19;20025;-92
2023/02/05 10:54:35;;;;;;;1.05;0.70;;;;;;;19.03;98.42;102856.44;7399463;19;20015;-87
2023/02/05 10:57:02;;;;;;;1.58;0.60;;;;;;;25.70;47.17;102833.50;7398838;19;20014;-88
2023/02/05 10:59:30;;;;;;;2.30;0.75;;;;;;;11.08;99.04;102852.66;7400658;19;20027;-89
2023/02/05 11:02:01;;;;;;;5.13;0.82;;;;;;;9.36;100.00;102848.91;7396935;19;20011;-88
2023/02/05 11:04:33;;;;;;;;;;;;;;;5.11;100.00;102868.00;7401727;19;20007;-89
2023/02/05 11:07:04;;;;;;;21.75;4.93;;;;;;;4.10;100.00;102873.66;7401746;19;19929;-88
2023/02/05 11:09:33;;;;;;;27.02;6.97;;;;;;;3.83;100.00;102885.63;7400275;19;20010;-89
2023/02/05 11:12:13;;;;;;;16.17;6.03;;;;;;;3.84;100.00;102865.16;7396476;19;20074;-88
2023/02/05 11:14:43;;;;;;;22.17;4.80;;;;;;;3.85;100.00;102861.25;7400087;19;20015;-90
2023/02/05 11:17:15;;;;;;;5.18;2.10;;;;;;;3.98;100.00;102871.03;7394872;19;20039;-89
2023/02/05 11:19:55;;;;;;;0.77;0.75;;;;;;;4.55;100.00;102862.88;7392733;19;20019;-89
2023/02/05 11:22:38;;;;;;;0.73;0.68;;;;;;;5.66;100.00;102852.81;7392352;19;20010;-90
2023/02/05 11:25:18;;;;;;;0.73;0.73;;;;;;;7.98;100.00;102858.53;7391580;19;20027;-90
2023/02/05 11:27:56;;;;;;;2.55;1.20;;;;;;;5.71;100.00;102869.09;7391132;19;20381;-90
2023/02/05 11:30:34;;;;;;;0.45;0.45;;;;;;;6.93;100.00;102885.97;7391006;19;20022;-90
2023/02/05 11:33:17;;;;;;;1.20;1.08;;;;;;;4.58;100.00;102889.75;7390357;19;20014;-91
2023/02/05 11:36:03;;;;;;;5.80;1.33;;;;;;;4.58;100.00;102894.47;7389770;19;20022;-90
2023/02/05 11:38:35;;;;;;;1.70;0.90;;;;;;;5.55;100.00;102891.31;7390137;19;20010;-89
2023/02/05 11:41:06;;;;;;;2.42;0.90;;;;;;;6.10;100.00;102896.28;7389908;19;20010;-89
2023/02/05 11:43:39;;;;;;;11.57;0.93;;;;;;;6.44;100.00;102888.06;7392638;19;20011;-91
2023/02/05 11:46:08;;;;;;;9.43;1.00;;;;;;;6.31;100.00;102881.16;7389829;19;20039;-88